Time;durP1;ratioP1;P1;durP2;ratioP2;P2;SDS_P1;SDS_P2;PMS_P1;PMS_P2;Temp;Humidity;BMP_temperature;BMP_pressure;BME280_temperature;BME280_humidity;BME280_pressure;Samples;Min_cycle;Max_cycle;Signal;HPM_P1;HPM_P2
2022/09/12 00:01:07;;;;;;;2.00;1.70;;;27.20;57.70;;;;;;5012736;28;20033;-70
2022/09/12 00:03:33;;;;;;;2.08;1.80;;;27.10;57.60;;;;;;5012569;28;20038;-70
2022/09/12 00:05:59;;;;;;;2.40;2.20;;;27.10;57.80;;;;;;5011424;28;20432;-70
2022/09/12 00:08:26;;;;;;;2.03;1.70;;;27.10;57.90;;;;;;5012378;28;20067;-68
2022/09/12 00:10:52;;;;;;;1.90;1.80;;;27.00;57.90;;;;;;5012574;28;20045;-70
2022/09/12 00:13:18;;;;;;;1.90;1.80;;;27.10;57.90;;;;;;5012300;28;20038;-70
2022/09/12 00:15:44;;;;;;;2.17;1.98;;;27.20;57.90;;;;;;5012330;28;20521;-70
2022/09/12 00:18:14;;;;;;;2.00;1.80;;;27.20;57.80;;;;;;5012310;28;20030;-70
2022/09/12 00:20:42;;;;;;;2.67;2.10;;;27.20;57.70;;;;;;5012380;28;20109;-70
2022/09/12 00:23:08;;;;;;;2.13;1.98;;;27.20;57.80;;;;;;5012283;28;20026;-71
2022/09/12 00:25:41;;;;;;;2.65;1.73;;;27.10;57.80;;;;;;5012698;28;20033;-70
2022/09/12 00:28:07;;;;;;;2.42;1.65;;;27.10;57.80;;;;;;5012076;28;20030;-70
2022/09/12 00:30:33;;;;;;;1.77;1.67;;;27.10;57.90;;;;;;4993246;28;20044;-70
2022/09/12 00:32:59;;;;;;;3.33;2.10;;;27.10;57.90;;;;;;5012107;28;20109;-70
2022/09/12 00:35:25;;;;;;;1.58;1.42;;;27.10;57.90;;;;;;5012110;28;20336;-70
2022/09/12 00:37:51;;;;;;;1.70;1.60;;;27.20;57.90;;;;;;5011003;28;20379;-70
2022/09/12 00:40:17;;;;;;;1.48;1.38;;;27.10;57.90;;;;;;5011771;28;20105;-70
2022/09/12 00:42:43;;;;;;;1.83;1.40;;;27.10;57.80;;;;;;5011957;28;20026;-70
2022/09/12 00:45:22;;;;;;;1.75;1.65;;;27.00;57.70;;;;;;5011442;28;20371;-70
2022/09/12 00:47:48;;;;;;;2.38;1.90;;;27.20;57.70;;;;;;5011494;28;20057;-70
2022/09/12 00:50:16;;;;;;;1.98;1.80;;;27.20;57.80;;;;;;5011048;28;20029;-70
2022/09/12 00:52:44;;;;;;;1.80;1.70;;;27.10;57.80;;;;;;5011694;28;20370;-70
2022/09/12 00:55:32;;;;;;;4.18;2.08;;;27.10;57.80;;;;;;5011985;28;20460;-70
2022/09/12 00:58:15;;;;;;;1.92;1.83;;;26.90;57.30;;;;;;5012298;28;20125;-70
2022/09/12 01:00:41;;;;;;;2.47;1.92;;;26.90;57.30;;;;;;5009863;28;20108;-71
2022/09/12 01:03:14;;;;;;;1.88;1.70;;;26.90;57.50;;;;;;5011076;28;20083;-70
2022/09/12 01:05:45;;;;;;;;;;;26.90;57.50;;;;;;5010787;28;20410;-70
2022/09/12 01:08:11;;;;;;;1.80;1.70;;;26.90;57.60;;;;;;5011896;28;19923;-70
2022/09/12 01:10:40;;;;;;;2.47;1.85;;;26.90;57.70;;;;;;5011390;28;20076;-71
2022/09/12 01:13:08;;;;;;;2.47;2.28;;;26.80;57.70;;;;;;5012029;28;20042;-70
2022/09/12 01:15:37;;;;;;;2.40;2.20;;;26.90;57.70;;;;;;5011595;28;20072;-70
2022/09/12 01:18:12;;;;;;;2.20;2.00;;;26.80;57.60;;;;;;5011433;28;20037;-70
2022/09/12 01:21:00;;;;;;;4.22;2.55;;;26.80;57.60;;;;;;5011044;28;20057;-70
2022/09/12 01:23:47;;;;;;;3.20;2.22;;;26.90;57.60;;;;;;5011392;28;20034;-70
2022/09/12 01:26:38;;;;;;;3.55;1.95;;;26.90;57.60;;;;;;5011250;28;20034;-70
2022/09/12 01:29:31;;;;;;;3.95;1.95;;;26.80;57.60;;;;;;5007935;28;20121;-70
2022/09/12 01:32:15;;;;;;;2.78;2.40;;;27.00;58.10;;;;;;4990291;28;20483;-70
2022/09/12 01:34:51;;;;;;;2.58;2.30;;;27.00;58.10;;;;;;4991238;28;20421;-70
2022/09/12 01:37:20;;;;;;;3.60;1.98;;;26.90;57.60;;;;;;4991437;28;20109;-70
2022/09/12 01:40:13;;;;;;;2.28;2.08;;;27.00;58.20;;;;;;4991851;28;20038;-70
2022/09/12 01:42:51;;;;;;;2.13;2.00;;;26.80;57.60;;;;;;4991684;28;20503;-70
2022/09/12 01:45:28;;;;;;;4.15;1.83;;;26.90;57.60;;;;;;4991874;28;20042;-71
2022/09/12 01:48:06;;;;;;;3.03;1.80;;;26.90;57.60;;;;;;4991547;28;20376;-70
2022/09/12 01:50:39;;;;;;;2.78;2.58;;;26.80;57.60;;;;;;4991639;28;20045;-70
2022/09/12 01:53:15;;;;;;;3.45;2.20;;;26.90;57.70;;;;;;4989333;28;20104;-70
2022/09/12 01:55:48;;;;;;;4.72;2.30;;;26.80;57.70;;;;;;4991575;28;20058;-70
2022/09/12 01:58:22;;;;;;;2.65;2.40;;;26.80;57.70;;;;;;4991395;28;20137;-69
2022/09/12 02:01:08;;;;;;;2.00;1.80;;;26.80;57.70;;;;;;4991020;28;20447;-71
2022/09/12 02:03:43;;;;;;;2.47;2.28;;;26.70;57.80;;;;;;4991639;28;20070;-70
2022/09/12 02:06:28;;;;;;;2.92;2.45;;;26.70;57.90;;;;;;4990226;28;20120;-70
2022/09/12 02:09:00;;;;;;;3.38;2.33;;;26.60;58.00;;;;;;4991510;28;20066;-70
2022/09/12 02:11:30;;;;;;;2.60;2.40;;;26.70;58.00;;;;;;4991729;28;20039;-70
2022/09/12 02:14:08;;;;;;;2.72;2.40;;;26.70;58.00;;;;;;4991430;28;20082;-69
2022/09/12 02:17:01;;;;;;;2.67;2.47;;;26.70;58.00;;;;;;4989971;28;20368;-69
2022/09/12 02:19:35;;;;;;;3.50;2.40;;;26.70;57.90;;;;;;4949800;28;20054;-69
2022/09/12 02:22:03;;;;;;;2.40;1.95;;;26.70;57.90;;;;;;4950198;29;20347;-69
2022/09/12 02:24:37;;;;;;;2.20;2.00;;;26.70;57.90;;;;;;4949907;29;20058;-67
2022/09/12 02:27:11;;;;;;;2.38;2.17;;;26.80;57.90;;;;;;4965707;28;20034;-69
2022/09/12 02:29:37;;;;;;;3.47;2.35;;;26.70;57.90;;;;;;4969035;28;20027;-69
2022/09/12 02:32:27;;;;;;;2.97;1.90;;;26.70;57.80;;;;;;4971353;28;20384;-69
2022/09/12 02:35:17;;;;;;;2.45;2.25;;;26.80;57.80;;;;;;4972198;28;20046;-69
2022/09/12 02:37:50;;;;;;;2.08;1.90;;;26.90;57.80;;;;;;4971977;28;20072;-69
2022/09/12 02:40:17;;;;;;;5.13;1.90;;;26.80;57.80;;;;;;4971512;28;20408;-69
2022/09/12 02:42:43;;;;;;;3.22;1.67;;;26.70;57.80;;;;;;4972421;28;20039;-69
2022/09/12 02:45:11;;;;;;;3.35;2.28;;;26.70;57.80;;;;;;4972252;28;20031;-69
2022/09/12 02:47:48;;;;;;;3.30;1.90;;;26.70;57.90;;;;;;4972705;28;20035;-69
2022/09/12 02:50:14;;;;;;;2.17;1.98;;;26.70;57.90;;;;;;4972191;28;20125;-69
2022/09/12 02:52:41;;;;;;;1.75;1.65;;;26.70;57.90;;;;;;4972185;28;20038;-69
2022/09/12 02:55:10;;;;;;;2.20;1.83;;;26.50;57.90;;;;;;4955943;28;20027;-69
2022/09/12 02:57:36;;;;;;;2.00;1.80;;;26.70;57.80;;;;;;4993556;28;20133;-69
2022/09/12 03:00:04;;;;;;;2.90;1.88;;;26.60;57.90;;;;;;4993754;28;20054;-68
2022/09/12 03:02:58;;;;;;;5.40;2.00;;;26.60;58.00;;;;;;4993964;28;20042;-69
2022/09/12 03:05:39;;;;;;;3.15;2.28;;;26.60;58.10;;;;;;4993273;28;20041;-70
2022/09/12 03:08:35;;;;;;;7.63;2.40;;;26.70;58.10;;;;;;4993331;28;20344;-68
2022/09/12 03:11:01;;;;;;;3.45;1.80;;;26.70;58.00;;;;;;4936001;29;20043;-69
2022/09/12 03:14:06;;;;;;;3.65;1.80;;;26.60;58.10;;;;;;4951819;29;20532;-69
2022/09/12 03:16:56;;;;;;;2.30;2.10;;;26.70;58.00;;;;;;4876324;29;20579;-69
2022/09/12 03:19:30;;;;;;;2.80;1.95;;;26.60;58.00;;;;;;4876547;29;20487;-69
2022/09/12 03:22:23;;;;;;;4.50;2.33;;;26.60;58.00;;;;;;4876701;29;20568;-69
2022/09/12 03:25:13;;;;;;;2.28;1.92;;;26.60;58.00;;;;;;4892192;29;20037;-70
2022/09/12 03:27:45;;;;;;;2.63;2.03;;;26.70;58.00;;;;;;4897726;29;20076;-69
2022/09/12 03:30:11;;;;;;;4.07;2.25;;;26.70;58.00;;;;;;4895415;29;20044;-69
2022/09/12 03:32:51;;;;;;;4.05;2.22;;;26.70;58.00;;;;;;4895472;29;20052;-69
2022/09/12 03:35:20;;;;;;;6.35;2.30;;;26.70;57.80;;;;;;4895280;29;20049;-69
2022/09/12 03:37:46;;;;;;;2.90;2.10;;;26.70;57.70;;;;;;4894953;29;20455;-69
2022/09/12 03:40:14;;;;;;;3.28;2.35;;;26.80;57.60;;;;;;4894269;29;20565;-69
2022/09/12 03:42:41;;;;;;;3.15;2.42;;;26.70;57.60;;;;;;4879075;29;20527;-70
2022/09/12 03:45:08;;;;;;;5.93;2.33;;;26.70;57.50;;;;;;4879837;29;20072;-69
2022/09/12 03:47:34;;;;;;;8.82;2.97;;;26.70;57.40;;;;;;4927430;29;20548;-69
2022/09/12 03:50:01;;;;;;;4.82;3.13;;;26.70;57.50;;;;;;4952175;29;20037;-69
2022/09/12 03:52:27;;;;;;;3.70;3.22;;;26.70;57.70;;;;;;4970897;28;20053;-70
2022/09/12 03:54:53;;;;;;;4.38;2.92;;;26.70;57.60;;;;;;4993187;28;20026;-70
2022/09/12 03:57:19;;;;;;;6.18;3.28;;;26.70;57.50;;;;;;4993502;28;20073;-69
2022/09/12 03:59:48;;;;;;;5.70;2.47;;;26.80;57.20;;;;;;4993449;28;20058;-69
2022/09/12 04:02:14;;;;;;;3.13;2.83;;;26.80;57.00;;;;;;4993291;28;20038;-69
2022/09/12 04:04:42;;;;;;;3.50;2.78;;;26.90;56.80;;;;;;4992017;28;20043;-69
2022/09/12 04:07:09;;;;;;;3.53;2.53;;;26.90;56.80;;;;;;4992977;28;20042;-69
2022/09/12 04:09:35;;;;;;;5.32;2.75;;;26.90;56.60;;;;;;4992942;28;20054;-71
2022/09/12 04:12:02;;;;;;;2.90;2.55;;;26.90;56.60;;;;;;4992223;28;20038;-70
2022/09/12 04:14:27;;;;;;;3.10;2.05;;;27.00;58.80;;;;;;4992249;28;20046;-72
2022/09/12 04:16:54;;;;;;;2.10;1.92;;;27.40;60.10;;;;;;4992209;28;20034;-70
2022/09/12 04:19:20;;;;;;;1.92;1.83;;;27.50;60.70;;;;;;4992153;28;20053;-71
2022/09/12 04:21:46;;;;;;;5.85;2.00;;;27.70;60.30;;;;;;5003781;28;20048;-72
2022/09/12 04:24:12;;;;;;;1.75;1.65;;;27.60;60.70;;;;;;5011330;28;20394;-71
2022/09/12 04:26:38;;;;;;;1.73;1.63;;;27.50;56.90;;;;;;5011842;28;20037;-70
2022/09/12 04:29:04;;;;;;;1.60;1.48;;;27.70;56.40;;;;;;5010213;28;20065;-71
2022/09/12 04:31:30;;;;;;;3.08;1.80;;;27.60;55.90;;;;;;5011486;28;20041;-72
2022/09/12 04:33:59;;;;;;;2.17;1.98;;;27.50;55.30;;;;;;5009997;28;20033;-71
2022/09/12 04:36:27;;;;;;;1.45;1.35;;;27.50;55.00;;;;;;5011170;28;20033;-71
2022/09/12 04:38:53;;;;;;;2.15;1.67;;;27.40;54.90;;;;;;5011404;28;20034;-71
2022/09/12 04:41:28;;;;;;;5.05;1.73;;;27.50;54.60;;;;;;5011055;28;20038;-71
2022/09/12 04:43:57;;;;;;;1.52;1.42;;;27.40;54.20;;;;;;5010932;28;20044;-70
2022/09/12 04:46:24;;;;;;;3.38;1.70;;;27.50;54.00;;;;;;5009813;28;20155;-70
2022/09/12 04:48:51;;;;;;;2.85;1.60;;;27.40;53.70;;;;;;5010987;28;20347;-71
2022/09/12 04:51:20;;;;;;;1.92;1.75;;;27.40;53.50;;;;;;5010861;28;20030;-70
2022/09/12 04:53:51;;;;;;;1.83;1.73;;;27.40;53.20;;;;;;5007939;28;20448;-71
2022/09/12 04:56:18;;;;;;;3.65;2.35;;;27.40;53.00;;;;;;5010809;28;20079;-73
2022/09/12 04:58:45;;;;;;;0.75;0.70;;;27.30;53.00;;;;;;5008958;28;20050;-72
2022/09/12 05:01:17;;;;;;;0.90;0.90;;;27.50;53.80;;;;;;5011577;28;20069;-72
2022/09/12 05:03:45;;;;;;;1.00;1.00;;;27.40;52.90;;;;;;5011507;28;20036;-72
2022/09/12 05:06:13;;;;;;;0.95;0.95;;;27.40;52.20;;;;;;5011559;28;20156;-71
2022/09/12 05:08:40;;;;;;;1.42;0.82;;;27.40;52.00;;;;;;5009452;28;20108;-71
2022/09/12 05:11:11;;;;;;;1.25;0.90;;;27.40;53.00;;;;;;5011647;28;20065;-71
2022/09/12 05:13:37;;;;;;;0.70;0.70;;;27.40;53.90;;;;;;5011497;28;20034;-71
2022/09/12 05:16:05;;;;;;;2.05;1.33;;;27.40;53.50;;;;;;5011682;28;20038;-71
2022/09/12 05:18:33;;;;;;;1.30;1.20;;;27.40;53.90;;;;;;5009650;28;20028;-71
2022/09/12 05:21:01;;;;;;;6.53;1.17;;;27.50;53.40;;;;;;5011699;28;20041;-75
2022/09/12 05:23:30;;;;;;;0.90;0.85;;;27.40;52.50;;;;;;4994093;28;20061;-75
2022/09/12 05:25:58;;;;;;;2.25;2.00;;;27.50;52.00;;;;;;5011710;28;20112;-74
2022/09/12 05:28:29;;;;;;;0.82;0.82;;;27.40;51.40;;;;;;5010852;28;20464;-75
2022/09/12 05:31:22;;;;;;;2.60;1.30;;;27.50;51.10;;;;;;5011573;28;20037;-72
2022/09/12 05:33:51;;;;;;;2.25;1.92;;;27.40;53.20;;;;;;5011513;28;20033;-77
2022/09/12 05:36:20;;;;;;;5.70;2.47;;;27.30;53.70;;;;;;5011150;28;20113;-73
2022/09/12 05:38:46;;;;;;;5.43;2.35;;;27.40;53.50;;;;;;5010904;28;20048;-73
2022/09/12 05:41:23;;;;;;;2.22;2.00;;;27.40;53.30;;;;;;5010015;28;20455;-75
2022/09/12 05:43:57;;;;;;;2.55;1.92;;;27.40;50.50;;;;;;5024897;28;20054;-73
2022/09/12 05:46:28;;;;;;;3.20;2.08;;;27.30;53.90;;;;;;5007834;28;20030;-71
2022/09/12 05:48:56;;;;;;;2.90;2.33;;;27.40;53.10;;;;;;5007328;28;20065;-70
2022/09/12 05:51:24;;;;;;;3.42;2.58;;;27.30;51.70;;;;;;5005195;28;20096;-73
2022/09/12 05:53:53;;;;;;;3.45;2.63;;;27.30;50.80;;;;;;5008749;28;20111;-72
2022/09/12 05:56:24;;;;;;;3.58;2.50;;;27.20;51.20;;;;;;5007787;28;20045;-71
2022/09/12 05:59:02;;;;;;;3.42;2.53;;;27.10;52.40;;;;;;5006575;28;20084;-70
2022/09/12 06:01:30;;;;;;;2.67;1.90;;;27.20;52.10;;;;;;5008589;28;20040;-69
2022/09/12 06:03:59;;;;;;;1.95;1.77;;;27.10;53.90;;;;;;5008723;28;20038;-70
2022/09/12 06:06:27;;;;;;;2.25;2.00;;;27.20;52.00;;;;;;5009814;28;20483;-70
2022/09/12 06:08:59;;;;;;;4.68;2.13;;;27.20;51.60;;;;;;5012084;28;20034;-71
2022/09/12 06:11:28;;;;;;;4.38;1.92;;;27.10;50.70;;;;;;5010801;28;20044;-70
2022/09/12 06:13:56;;;;;;;2.40;1.85;;;27.20;51.80;;;;;;5011399;28;20070;-70
2022/09/12 06:16:25;;;;;;;5.25;1.95;;;27.10;53.10;;;;;;5010032;28;20052;-72
2022/09/12 06:18:53;;;;;;;2.90;2.05;;;27.20;50.20;;;;;;5011167;28;20038;-73
2022/09/12 06:21:21;;;;;;;4.00;1.58;;;27.20;51.90;;;;;;5013910;28;20430;-70
2022/09/12 06:23:49;;;;;;;2.08;1.63;;;27.20;53.20;;;;;;5014132;28;20491;-73
2022/09/12 06:26:20;;;;;;;1.65;1.55;;;27.20;53.10;;;;;;5014140;28;20034;-70
2022/09/12 06:28:46;;;;;;;1.92;1.52;;;27.10;53.00;;;;;;5013284;28;20040;-76
2022/09/12 06:31:15;;;;;;;1.92;1.48;;;27.20;53.20;;;;;;5013052;28;20034;-71
2022/09/12 06:33:44;;;;;;;5.55;1.92;;;27.30;54.20;;;;;;5014069;28;20038;-69
2022/09/12 06:36:16;;;;;;;3.28;1.60;;;27.40;54.30;;;;;;5014290;28;20041;-69
2022/09/12 06:38:45;;;;;;;11.90;2.17;;;27.30;54.40;;;;;;5013931;28;20026;-69
2022/09/12 06:41:12;;;;;;;2.42;1.50;;;27.30;54.70;;;;;;5013504;28;20028;-69
2022/09/12 06:43:40;;;;;;;2.03;1.58;;;27.20;54.40;;;;;;5013200;28;20030;-68
2022/09/12 06:46:06;;;;;;;3.63;1.65;;;27.40;55.10;;;;;;5013151;28;20072;-69
2022/09/12 06:48:33;;;;;;;1.85;1.52;;;27.20;55.00;;;;;;5013296;28;20021;-72
2022/09/12 06:51:01;;;;;;;2.22;1.60;;;27.40;55.10;;;;;;5013691;28;20022;-69
2022/09/12 06:53:28;;;;;;;2.03;1.40;;;27.40;55.60;;;;;;5014103;28;20514;-73
2022/09/12 06:56:12;;;;;;;1.75;1.40;;;27.40;55.20;;;;;;5013841;28;20078;-71
2022/09/12 06:58:39;;;;;;;2.65;2.00;;;27.40;55.10;;;;;;5011396;28;20534;-73
2022/09/12 07:01:10;;;;;;;2.47;1.77;;;27.40;55.50;;;;;;5011710;28;20040;-70
2022/09/12 07:03:37;;;;;;;2.28;1.50;;;27.30;55.30;;;;;;5010631;28;20459;-73
2022/09/12 07:06:09;;;;;;;4.63;1.60;;;27.30;55.10;;;;;;5010661;28;20041;-73
2022/09/12 07:08:37;;;;;;;1.42;1.33;;;27.40;55.00;;;;;;5012491;28;20030;-72
2022/09/12 07:11:20;;;;;;;2.90;1.65;;;27.40;55.10;;;;;;5012746;28;20065;-72
2022/09/12 07:13:49;;;;;;;4.35;2.20;;;27.40;54.90;;;;;;5010508;28;20034;-72
2022/09/12 07:16:15;;;;;;;5.75;1.70;;;27.50;54.70;;;;;;5013283;28;20133;-70
2022/09/12 07:18:42;;;;;;;2.25;1.60;;;27.50;54.50;;;;;;5013023;28;20021;-69
2022/09/12 07:21:13;;;;;;;3.72;1.67;;;27.50;54.30;;;;;;5012901;28;20475;-71
2022/09/12 07:23:40;;;;;;;3.03;1.45;;;27.60;53.70;;;;;;5012905;28;20423;-72
2022/09/12 07:26:09;;;;;;;1.92;1.50;;;27.70;53.20;;;;;;5012012;28;20034;-73
2022/09/12 07:28:36;;;;;;;4.03;1.25;;;27.40;53.10;;;;;;5012933;28;20069;-69
2022/09/12 07:31:11;;;;;;;3.67;1.63;;;27.50;53.00;;;;;;5021917;28;20535;-74
2022/09/12 07:33:38;;;;;;;3.42;1.70;;;27.30;53.00;;;;;;5006899;28;20049;-70
2022/09/12 07:36:07;;;;;;;2.00;1.65;;;27.50;51.50;;;;;;5010187;28;20076;-70
2022/09/12 07:38:33;;;;;;;5.40;1.35;;;27.50;52.50;;;;;;5012864;28;20040;-69
2022/09/12 07:41:00;;;;;;;1.55;1.33;;;27.50;52.30;;;;;;5012218;28;20471;-73
2022/09/12 07:43:26;;;;;;;1.10;1.00;;;27.50;52.00;;;;;;5012819;28;20029;-75
2022/09/12 07:45:56;;;;;;;2.08;1.75;;;27.60;51.70;;;;;;5011109;28;20065;-74
2022/09/12 07:48:22;;;;;;;5.30;2.20;;;27.40;51.60;;;;;;5012890;28;20435;-75
2022/09/12 07:50:59;;;;;;;1.48;1.30;;;27.50;51.80;;;;;;5013253;28;20116;-73
2022/09/12 07:53:46;;;;;;;2.85;1.88;;;27.40;52.00;;;;;;5012896;28;20091;-71
2022/09/12 07:56:12;;;;;;;1.50;1.38;;;27.40;52.30;;;;;;5012773;28;20046;-72
2022/09/12 07:58:40;;;;;;;1.95;1.45;;;27.50;52.40;;;;;;5012256;28;20522;-72
2022/09/12 08:01:13;;;;;;;2.17;1.90;;;27.50;52.30;;;;;;5012682;28;20117;-73
2022/09/12 08:03:40;;;;;;;4.72;1.58;;;27.40;51.70;;;;;;5010086;28;20391;-70
2022/09/12 08:06:15;;;;;;;1.35;1.30;;;27.50;53.10;;;;;;5012644;28;20049;-71
2022/09/12 08:08:43;;;;;;;1.60;1.50;;;27.40;52.00;;;;;;5012375;28;20049;-70
2022/09/12 08:11:12;;;;;;;2.10;1.35;;;27.40;52.20;;;;;;5011518;28;20048;-73
2022/09/12 08:13:39;;;;;;;1.48;1.17;;;27.40;52.10;;;;;;5006038;28;20097;-70
2022/09/12 08:16:14;;;;;;;1.52;1.42;;;27.50;51.90;;;;;;5009672;28;20103;-72
2022/09/12 08:18:41;;;;;;;4.72;1.65;;;27.40;51.70;;;;;;5010610;28;20452;-74
2022/09/12 08:21:14;;;;;;;2.75;1.77;;;27.30;51.50;;;;;;5001607;28;20033;-72
2022/09/12 08:23:42;;;;;;;1.73;1.33;;;27.40;51.30;;;;;;5010742;28;20337;-72
2022/09/12 08:26:09;;;;;;;2.17;1.70;;;27.40;51.00;;;;;;5011806;28;20046;-72
2022/09/12 08:28:36;;;;;;;2.17;1.55;;;27.40;50.80;;;;;;5012354;28;20348;-72
2022/09/12 08:31:07;;;;;;;1.63;1.40;;;27.50;50.20;;;;;;5012400;28;20030;-73
2022/09/12 08:33:33;;;;;;;1.95;1.33;;;27.40;50.10;;;;;;5011077;28;20066;-71
2022/09/12 08:36:04;;;;;;;1.13;1.10;;;27.50;50.10;;;;;;5011383;28;20433;-72
2022/09/12 08:38:31;;;;;;;1.80;1.58;;;27.30;49.70;;;;;;5010806;28;20042;-70
2022/09/12 08:41:27;;;;;;;3.00;1.80;;;27.30;49.70;;;;;;5012170;28;20030;-73
2022/09/12 08:44:11;;;;;;;2.08;1.50;;;27.40;49.80;;;;;;5010737;28;20045;-71
2022/09/12 08:47:01;;;;;;;3.08;2.15;;;27.30;49.50;;;;;;5011770;28;20691;-70
2022/09/12 08:49:58;;;;;;;1.30;1.00;;;27.40;49.10;;;;;;4996686;28;20465;-70
2022/09/12 08:52:57;;;;;;;0.90;0.90;;;27.40;49.90;;;;;;4989316;28;20431;-70
2022/09/12 08:55:34;;;;;;;2.10;1.85;;;27.30;49.70;;;;;;4988639;28;20038;-71
2022/09/12 08:58:22;;;;;;;3.47;1.58;;;27.40;48.60;;;;;;4972532;28;20038;-71
2022/09/12 09:01:00;;;;;;;2.97;2.10;;;27.50;49.00;;;;;;4988904;28;20136;-71
2022/09/12 09:03:37;;;;;;;2.58;2.13;;;27.50;49.80;;;;;;4989584;28;20050;-70
2022/09/12 09:06:45;;;;;;;3.08;2.20;;;27.60;48.20;;;;;;4989500;28;20034;-72
2022/09/12 09:09:26;;;;;;;0.65;0.55;;;27.50;48.80;;;;;;4974206;28;20092;-72
2022/09/12 09:12:22;;;;;;;2.13;1.60;;;27.40;50.00;;;;;;4982279;28;20038;-72
2022/09/12 09:15:25;;;;;;;0.80;0.80;;;27.70;49.80;;;;;;4989049;28;20527;-73
2022/09/12 09:18:07;;;;;;;0.80;0.68;;;27.80;49.40;;;;;;4989290;28;20054;-74
2022/09/12 09:20:47;;;;;;;3.00;1.55;;;27.90;50.50;;;;;;4989450;28;20081;-70
2022/09/12 09:23:22;;;;;;;0.55;0.55;;;28.00;50.90;;;;;;4972822;28;20046;-70
2022/09/12 09:25:58;;;;;;;1.50;1.40;;;28.30;53.00;;;;;;4972445;28;20543;-69
2022/09/12 09:28:28;;;;;;;1.90;1.20;;;28.30;53.60;;;;;;5001698;28;20069;-72
2022/09/12 09:30:56;;;;;;;1.30;1.20;;;28.40;53.30;;;;;;4992632;28;20046;-71
2022/09/12 09:33:24;;;;;;;5.15;2.30;;;28.70;57.90;;;;;;5009069;28;20045;-73
2022/09/12 09:36:21;;;;;;;1.45;1.33;;;28.70;54.20;;;;;;4975811;28;20095;-71
2022/09/12 09:39:12;;;;;;;1.75;1.65;;;28.80;48.30;;;;;;5008813;28;20065;-72
2022/09/12 09:42:06;;;;;;;2.38;1.73;;;28.60;46.90;;;;;;5011635;28;20038;-72
2022/09/12 09:44:32;;;;;;;1.02;0.98;;;28.40;47.00;;;;;;5012850;28;20050;-73
2022/09/12 09:46:59;;;;;;;5.50;2.05;;;28.40;49.10;;;;;;5015087;28;20041;-71
2022/09/12 09:49:32;;;;;;;0.70;0.70;;;28.70;50.40;;;;;;5015094;28;20037;-73
2022/09/12 09:52:02;;;;;;;2.67;1.75;;;29.00;52.70;;;;;;5012947;28;20046;-70
2022/09/12 09:54:49;;;;;;;3.92;1.73;;;29.40;52.20;;;;;;5015219;28;20042;-72
2022/09/12 09:57:33;;;;;;;1.75;1.65;;;29.30;48.30;;;;;;5013859;28;20045;-71
2022/09/12 10:00:25;;;;;;;3.60;2.05;;;29.00;47.20;;;;;;5015089;28;20438;-73
2022/09/12 10:03:03;;;;;;;5.65;2.47;;;29.00;50.40;;;;;;4973460;28;20105;-75
2022/09/12 10:05:32;;;;;;;0.70;0.70;;;29.10;49.80;;;;;;4973553;28;20125;-75
2022/09/12 10:07:58;;;;;;;4.22;1.83;;;29.50;50.60;;;;;;4971185;28;20074;-74
2022/09/12 10:10:24;;;;;;;2.20;2.00;;;29.70;49.20;;;;;;4976732;28;20039;-73
2022/09/12 10:13:05;;;;;;;7.20;1.80;;;29.80;47.50;;;;;;4973059;28;20031;-73
2022/09/12 10:15:31;;;;;;;1.95;1.67;;;29.60;45.40;;;;;;4981069;28;20035;-73
2022/09/12 10:17:58;;;;;;;2.15;1.60;;;29.40;44.70;;;;;;4976479;28;20049;-73
2022/09/12 10:20:35;;;;;;;13.02;1.58;;;29.40;44.20;;;;;;4976445;28;20384;-72
2022/09/12 10:23:19;;;;;;;1.08;0.90;;;29.20;44.10;;;;;;4992030;28;20121;-73
2022/09/12 10:25:52;;;;;;;2.30;1.30;;;29.10;44.50;;;;;;4991583;28;20048;-73
2022/09/12 10:28:28;;;;;;;0.82;0.82;;;29.10;44.20;;;;;;4976287;28;20035;-73
2022/09/12 10:30:55;;;;;;;0.68;0.68;;;28.90;43.60;;;;;;4992563;28;20053;-74
2022/09/12 10:33:24;;;;;;;0.57;0.57;;;28.80;43.50;;;;;;4992547;28;20046;-73
2022/09/12 10:35:52;;;;;;;2.30;1.20;;;28.80;43.40;;;;;;4959489;28;20050;-73
2022/09/12 10:38:25;;;;;;;2.05;1.40;;;28.80;43.70;;;;;;4992455;28;20046;-73
2022/09/12 10:40:59;;;;;;;1.88;1.45;;;28.60;44.10;;;;;;5012655;28;20157;-73
2022/09/12 10:43:25;;;;;;;1.70;1.60;;;28.50;43.60;;;;;;5014399;28;20110;-73
2022/09/12 10:45:55;;;;;;;1.98;1.40;;;28.70;43.90;;;;;;5012240;28;20049;-73
2022/09/12 10:48:30;;;;;;;0.90;0.90;;;28.60;44.30;;;;;;5013878;28;20053;-73
2022/09/12 10:51:00;;;;;;;0.93;0.93;;;28.50;45.00;;;;;;5012398;28;20092;-74
2022/09/12 10:53:31;;;;;;;1.10;1.10;;;28.40;45.10;;;;;;5012471;28;20045;-73
2022/09/12 10:56:19;;;;;;;1.77;1.50;;;28.40;45.30;;;;;;5026372;28;20510;-73
2022/09/12 10:59:04;;;;;;;1.75;1.50;;;28.30;45.30;;;;;;5012849;28;20395;-73
2022/09/12 11:01:49;;;;;;;1.25;1.15;;;28.20;45.50;;;;;;5030066;28;20133;-73
2022/09/12 11:04:49;;;;;;;3.17;1.25;;;28.30;45.60;;;;;;5028222;28;20108;-71
2022/09/12 11:07:23;;;;;;;1.00;1.00;;;28.20;46.10;;;;;;4993685;28;20060;-73
2022/09/12 11:10:11;;;;;;;1.42;1.33;;;28.10;45.00;;;;;;5032941;28;20034;-72
2022/09/12 11:12:46;;;;;;;0.43;0.43;;;28.20;43.80;;;;;;5050916;28;20064;-72
2022/09/12 11:15:44;;;;;;;1.65;1.35;;;28.10;44.80;;;;;;5050522;28;20048;-72
2022/09/12 11:18:42;;;;;;;1.00;0.90;;;28.00;44.10;;;;;;5027798;28;20041;-77
2022/09/12 11:21:51;;;;;;;1.83;1.33;;;27.90;44.80;;;;;;5010488;28;20073;-75
2022/09/12 11:24:46;;;;;;;1.30;0.88;;;28.00;47.90;;;;;;5030373;28;20041;-75
2022/09/12 11:27:19;;;;;;;0.80;0.80;;;27.90;49.00;;;;;;4949468;29;20416;-74
2022/09/12 11:29:49;;;;;;;;;;;27.90;48.80;;;;;;4933491;29;20040;-74
2022/09/12 11:32:24;;;;;;;0.73;0.73;;;27.90;48.10;;;;;;4943598;29;19917;-77
2022/09/12 11:35:20;;;;;;;2.28;0.70;;;27.90;47.70;;;;;;4913652;29;20062;-76
2022/09/12 11:37:46;;;;;;;1.90;1.08;;;28.00;46.30;;;;;;4929209;29;20040;-74
2022/09/12 11:40:19;;;;;;;1.60;1.02;;;27.90;44.90;;;;;;4932050;29;20486;-74
2022/09/12 11:42:48;;;;;;;1.30;0.80;;;28.00;44.40;;;;;;4932070;29;20488;-74
2022/09/12 11:45:37;;;;;;;2.03;1.30;;;27.90;44.10;;;;;;4931689;29;20078;-75
2022/09/12 11:48:11;;;;;;;1.27;1.17;;;27.90;43.20;;;;;;4931496;29;20074;-74
2022/09/12 11:50:37;;;;;;;2.42;1.30;;;27.90;43.30;;;;;;4931320;29;20099;-74
2022/09/12 11:53:21;;;;;;;1.20;1.10;;;28.00;43.60;;;;;;4931322;29;20067;-74
2022/09/12 11:55:55;;;;;;;1.42;1.25;;;27.80;43.30;;;;;;4928443;29;20031;-73
2022/09/12 11:58:24;;;;;;;0.98;0.80;;;27.90;43.30;;;;;;4932417;29;20052;-74
2022/09/12 12:00:55;;;;;;;4.88;1.55;;;27.80;43.00;;;;;;4931722;29;20072;-76
2022/09/12 12:03:38;;;;;;;5.35;1.33;;;27.80;43.30;;;;;;4965321;28;20045;-76
2022/09/12 12:06:20;;;;;;;2.90;0.90;;;27.90;43.20;;;;;;5011526;28;20030;-75
2022/09/12 12:08:49;;;;;;;1.50;0.93;;;27.90;42.70;;;;;;5011001;28;20025;-71
2022/09/12 12:11:39;;;;;;;1.08;0.55;;;27.90;43.50;;;;;;5011195;28;20088;-77
2022/09/12 12:14:18;;;;;;;3.00;0.80;;;27.90;43.50;;;;;;5010561;28;20137;-75
2022/09/12 12:16:45;;;;;;;0.77;0.77;;;27.80;43.40;;;;;;5010339;28;20088;-76
2022/09/12 12:19:14;;;;;;;0.75;0.70;;;27.80;43.20;;;;;;5010982;28;20049;-74
2022/09/12 12:21:48;;;;;;;0.80;0.60;;;27.80;43.20;;;;;;5011897;28;20025;-74
2022/09/12 12:24:22;;;;;;;0.70;0.70;;;28.00;43.40;;;;;;5008129;28;20037;-75
2022/09/12 12:27:02;;;;;;;0.95;0.75;;;27.90;42.90;;;;;;5011438;28;20034;-73
2022/09/12 12:29:34;;;;;;;0.65;0.65;;;27.80;42.80;;;;;;5008731;28;20445;-75
2022/09/12 12:32:03;;;;;;;2.13;0.97;;;27.80;42.80;;;;;;4990717;28;20503;-71
2022/09/12 12:34:33;;;;;;;1.35;1.25;;;27.90;43.00;;;;;;4992326;28;20092;-71
2022/09/12 12:37:19;;;;;;;0.55;0.55;;;27.80;42.30;;;;;;4999977;28;20088;-72
2022/09/12 12:39:46;;;;;;;0.90;0.90;;;27.90;42.90;;;;;;4992409;28;20038;-71
2022/09/12 12:42:34;;;;;;;0.95;0.95;;;27.80;42.30;;;;;;4992156;28;20050;-70
2022/09/12 12:45:07;;;;;;;4.28;1.13;;;27.80;43.60;;;;;;5006416;28;20046;-71
2022/09/12 12:47:41;;;;;;;1.00;0.90;;;27.80;43.00;;;;;;4992567;28;20467;-71
2022/09/12 12:50:13;;;;;;;0.88;0.88;;;27.90;43.00;;;;;;4992466;28;20034;-71
2022/09/12 12:52:47;;;;;;;0.70;0.70;;;27.80;43.00;;;;;;4992109;28;20435;-71
2022/09/12 12:55:21;;;;;;;1.15;1.05;;;27.70;44.60;;;;;;4992029;28;20030;-71
2022/09/12 12:57:50;;;;;;;2.75;1.08;;;27.80;44.70;;;;;;4992131;28;20093;-71
2022/09/12 13:00:19;;;;;;;0.95;0.95;;;27.80;44.80;;;;;;5008061;28;20085;-71
2022/09/12 13:03:09;;;;;;;0.80;0.80;;;27.80;44.90;;;;;;5012501;28;20029;-71
2022/09/12 13:05:48;;;;;;;1.25;0.70;;;27.80;44.30;;;;;;5018806;28;20164;-71
2022/09/12 13:08:17;;;;;;;0.80;0.80;;;27.80;44.80;;;;;;5031499;28;20064;-70
2022/09/12 13:11:01;;;;;;;3.90;1.05;;;27.80;45.40;;;;;;5030388;28;20037;-71
2022/09/12 13:13:44;;;;;;;0.88;0.82;;;27.70;44.30;;;;;;5031402;28;20088;-71
2022/09/12 13:16:27;;;;;;;2.20;1.02;;;27.70;45.20;;;;;;5030703;28;20041;-71
2022/09/12 13:18:53;;;;;;;0.82;0.80;;;27.60;44.80;;;;;;5015274;28;20116;-71
2022/09/12 13:21:21;;;;;;;2.97;0.75;;;27.70;45.00;;;;;;5010268;28;20030;-71